createdAt,value
2022-12-08T00:00:48.049Z,1.90
2022-12-08T00:03:15.081Z,1.80
2022-12-08T00:06:04.427Z,1.80
2022-12-08T00:08:49.918Z,1.70
2022-12-08T00:11:17.336Z,1.70
2022-12-08T00:13:44.580Z,1.70
2022-12-08T00:16:11.927Z,1.60
2022-12-08T00:18:38.888Z,1.60
2022-12-08T00:21:05.953Z,1.60
2022-12-08T00:23:32.897Z,1.70
2022-12-08T00:26:03.872Z,1.70
2022-12-08T00:28:31.429Z,1.60
2022-12-08T00:30:58.353Z,1.60
2022-12-08T00:33:25.207Z,1.60
2022-12-08T00:35:52.054Z,1.60
2022-12-08T00:38:19.089Z,1.60
2022-12-08T00:40:46.690Z,1.60
2022-12-08T00:43:14.252Z,1.60
2022-12-08T00:45:41.338Z,1.50
2022-12-08T00:48:08.331Z,1.50
2022-12-08T00:50:35.188Z,1.40
2022-12-08T00:53:02.248Z,1.40
2022-12-08T00:55:29.076Z,1.40
2022-12-08T00:57:55.960Z,1.40
2022-12-08T01:00:22.963Z,1.40
2022-12-08T01:02:49.982Z,1.40
2022-12-08T01:05:16.910Z,1.20
2022-12-08T01:07:43.819Z,1.20
2022-12-08T01:10:10.827Z,1.10
2022-12-08T01:12:37.693Z,1.00
2022-12-08T01:15:04.709Z,1.10
2022-12-08T01:17:31.629Z,1.10
2022-12-08T01:19:58.582Z,1.20
2022-12-08T01:22:25.778Z,1.20
2022-12-08T01:24:52.725Z,1.20
2022-12-08T01:27:19.581Z,1.10
2022-12-08T01:29:46.468Z,1.10
2022-12-08T01:32:13.381Z,1.10
2022-12-08T01:34:40.280Z,1.10
2022-12-08T01:37:07.103Z,1.10
2022-12-08T01:39:34.863Z,1.20
2022-12-08T01:42:01.765Z,1.30
2022-12-08T01:44:28.584Z,1.30
2022-12-08T01:46:55.496Z,1.30
2022-12-08T01:49:23.717Z,1.30
2022-12-08T01:51:50.565Z,1.40
2022-12-08T01:54:18.205Z,1.30
2022-12-08T01:56:49.192Z,1.30
2022-12-08T01:59:16.733Z,1.40
2022-12-08T02:01:43.716Z,1.30
2022-12-08T02:04:10.829Z,1.30
2022-12-08T02:06:40.109Z,1.30
2022-12-08T02:09:07.376Z,1.20
2022-12-08T02:11:34.270Z,1.10
2022-12-08T02:14:06.457Z,1.30
2022-12-08T02:16:33.314Z,1.20
2022-12-08T02:19:30.454Z,1.20
2022-12-08T02:21:52.876Z,1.20
2022-12-08T02:24:38.351Z,1.20
2022-12-08T02:27:14.374Z,1.30
2022-12-08T02:29:50.203Z,1.20
2022-12-08T02:32:35.595Z,1.00
2022-12-08T02:35:02.453Z,1.10
2022-12-08T02:37:39.073Z,1.10
2022-12-08T02:40:06.448Z,1.10
2022-12-08T02:42:37.937Z,1.20
2022-12-08T02:45:12.130Z,1.10
2022-12-08T02:47:39.952Z,1.20
2022-12-08T02:50:07.385Z,1.10
2022-12-08T02:52:34.227Z,1.00
2022-12-08T02:55:06.520Z,1.00
2022-12-08T02:57:33.455Z,1.00
2022-12-08T03:00:08.913Z,0.90
2022-12-08T03:02:38.825Z,0.90
2022-12-08T03:05:11.952Z,0.90
2022-12-08T03:07:42.167Z,0.90
2022-12-08T03:10:09.035Z,0.90
2022-12-08T03:12:43.790Z,1.00
2022-12-08T03:15:12.577Z,0.90
2022-12-08T03:17:41.297Z,1.00
2022-12-08T03:20:10.450Z,1.20
2022-12-08T03:22:38.509Z,1.10
2022-12-08T03:25:05.700Z,1.10
2022-12-08T03:27:32.822Z,1.10
2022-12-08T03:30:00.326Z,1.10
2022-12-08T03:32:47.985Z,1.10
2022-12-08T03:35:16.826Z,1.20
2022-12-08T03:37:43.989Z,1.10
2022-12-08T03:40:12.387Z,1.00
2022-12-08T03:42:39.336Z,1.00
2022-12-08T03:45:06.634Z,1.00
2022-12-08T03:47:33.501Z,1.00
2022-12-08T03:50:00.348Z,1.10
2022-12-08T03:52:27.297Z,1.00
2022-12-08T03:54:54.103Z,1.10
2022-12-08T03:57:21.774Z,1.10
2022-12-08T03:59:48.587Z,1.00
2022-12-08T04:02:15.511Z,1.10
2022-12-08T04:04:42.429Z,1.10
2022-12-08T04:07:09.296Z,1.20
2022-12-08T04:09:36.183Z,1.10
2022-12-08T04:12:03.112Z,1.10
2022-12-08T04:14:29.973Z,1.20
2022-12-08T04:16:56.937Z,1.20
2022-12-08T04:19:23.771Z,1.10
2022-12-08T04:21:50.649Z,1.10
2022-12-08T04:24:17.635Z,1.10
2022-12-08T04:26:44.492Z,1.20
2022-12-08T04:29:11.427Z,1.40
2022-12-08T04:31:38.401Z,1.40
2022-12-08T04:34:05.279Z,1.40
2022-12-08T04:36:32.425Z,1.30
2022-12-08T04:38:59.980Z,1.50
2022-12-08T04:41:26.859Z,1.50
2022-12-08T04:43:53.717Z,1.50
2022-12-08T04:46:20.737Z,1.50
2022-12-08T04:48:47.659Z,1.50
2022-12-08T04:51:15.418Z,1.50
2022-12-08T04:53:46.473Z,1.50
2022-12-08T04:56:14.997Z,1.50
2022-12-08T04:58:41.903Z,1.60
2022-12-08T05:01:08.932Z,1.50
2022-12-08T05:03:35.839Z,1.60
2022-12-08T05:06:02.997Z,1.70
2022-12-08T05:08:30.032Z,1.70
2022-12-08T05:11:07.529Z,1.80
2022-12-08T05:13:34.413Z,1.70
2022-12-08T05:16:09.011Z,1.70
2022-12-08T05:18:36.264Z,1.70
2022-12-08T05:21:03.129Z,1.70
2022-12-08T05:23:30.129Z,1.70
2022-12-08T05:25:56.992Z,1.70
2022-12-08T05:31:11.993Z,1.60
2022-12-08T05:33:38.936Z,1.70
2022-12-08T05:36:05.976Z,1.80
2022-12-08T05:38:32.828Z,1.70
2022-12-08T05:40:59.691Z,1.70
2022-12-08T05:43:26.877Z,1.70
2022-12-08T05:45:53.850Z,1.70
2022-12-08T05:48:20.809Z,1.70
2022-12-08T05:50:48.061Z,1.80
2022-12-08T05:53:15.328Z,1.70
2022-12-08T05:55:42.163Z,1.60
2022-12-08T05:58:12.027Z,1.50
2022-12-08T06:00:38.880Z,1.50
2022-12-08T06:03:05.819Z,1.50
2022-12-08T06:05:33.689Z,1.50
2022-12-08T06:08:00.805Z,1.60
2022-12-08T06:10:27.747Z,1.60
2022-12-08T06:12:54.608Z,1.60
2022-12-08T06:15:21.497Z,1.70
2022-12-08T06:17:48.422Z,1.70
2022-12-08T06:20:15.441Z,1.70
2022-12-08T06:22:42.280Z,1.60
2022-12-08T06:25:10.288Z,1.60
2022-12-08T06:27:37.286Z,1.60
2022-12-08T06:30:04.863Z,1.60
2022-12-08T06:32:31.870Z,1.50
2022-12-08T06:34:58.741Z,1.50
2022-12-08T06:37:25.644Z,1.50
2022-12-08T06:39:52.653Z,1.70
2022-12-08T06:42:38.130Z,1.70
2022-12-08T06:45:05.282Z,1.70
2022-12-08T06:47:32.188Z,1.70
2022-12-08T06:49:59.210Z,1.70
2022-12-08T06:52:26.127Z,1.60
2022-12-08T06:54:53.079Z,1.80
2022-12-08T06:57:20.023Z,1.70
2022-12-08T06:59:47.002Z,1.70
2022-12-08T07:02:13.963Z,1.70
2022-12-08T07:04:40.860Z,1.60
2022-12-08T07:07:07.837Z,1.70
2022-12-08T07:09:34.733Z,1.80
2022-12-08T07:12:01.591Z,1.80
2022-12-08T07:14:28.621Z,1.80
2022-12-08T07:16:55.588Z,1.90
2022-12-08T07:19:22.483Z,1.90
2022-12-08T07:21:49.480Z,1.90
2022-12-08T07:24:16.440Z,1.90
2022-12-08T07:26:43.395Z,1.80
2022-12-08T07:29:10.860Z,1.90
2022-12-08T07:31:37.698Z,2.00
2022-12-08T07:34:04.548Z,1.90
2022-12-08T07:36:32.606Z,1.90
2022-12-08T07:38:59.526Z,2.00
2022-12-08T07:41:26.740Z,2.00
2022-12-08T07:43:53.886Z,2.00
2022-12-08T07:46:21.851Z,2.10
2022-12-08T07:48:48.810Z,2.00
2022-12-08T07:51:16.565Z,2.00
2022-12-08T07:53:47.220Z,1.90
2022-12-08T07:56:17.175Z,1.90
2022-12-08T07:58:46.783Z,1.90
2022-12-08T08:01:21.213Z,1.80
2022-12-08T08:03:48.349Z,1.80
2022-12-08T08:06:15.255Z,1.80
2022-12-08T08:08:42.246Z,1.70
2022-12-08T08:11:17.409Z,1.70
2022-12-08T08:13:47.995Z,1.80
2022-12-08T08:16:15.015Z,1.80
2022-12-08T08:18:42.204Z,1.90
2022-12-08T08:21:36.583Z,1.80
2022-12-08T08:23:56.515Z,1.80
2022-12-08T08:26:23.316Z,1.90
2022-12-08T08:28:50.584Z,1.90
2022-12-08T08:31:17.490Z,1.90
2022-12-08T08:33:44.617Z,1.90
2022-12-08T08:36:11.705Z,2.00
2022-12-08T08:38:42.904Z,2.00
2022-12-08T08:41:10.486Z,2.00
2022-12-08T08:43:38.593Z,2.10
2022-12-08T08:46:06.356Z,2.10
2022-12-08T08:48:33.438Z,2.20
2022-12-08T08:51:06.840Z,2.30
2022-12-08T08:53:33.763Z,2.30
2022-12-08T08:56:02.942Z,2.20
2022-12-08T08:58:31.226Z,2.20
2022-12-08T09:00:58.034Z,2.30
2022-12-08T09:03:24.969Z,2.40
2022-12-08T09:05:51.991Z,2.60
2022-12-08T09:08:19.626Z,2.60
2022-12-08T09:10:46.542Z,2.70
2022-12-08T09:13:13.492Z,2.70
2022-12-08T09:15:40.705Z,2.60
2022-12-08T09:18:07.709Z,2.70
2022-12-08T09:20:35.224Z,2.80
2022-12-08T09:23:02.160Z,2.90
2022-12-08T09:25:28.995Z,3.00
2022-12-08T09:27:55.928Z,3.00
2022-12-08T09:30:22.956Z,3.00
2022-12-08T09:32:49.968Z,3.00
2022-12-08T09:35:16.805Z,3.10
2022-12-08T09:37:43.592Z,3.10
2022-12-08T09:40:15.859Z,3.30
2022-12-08T09:42:49.536Z,3.30
2022-12-08T09:45:17.104Z,3.40
2022-12-08T09:47:47.836Z,3.50
2022-12-08T09:50:33.516Z,3.50
2022-12-08T09:53:07.298Z,3.60
2022-12-08T09:55:54.003Z,3.70
2022-12-08T09:58:20.869Z,3.80
2022-12-08T10:00:47.789Z,3.80
2022-12-08T10:03:16.839Z,4.00
2022-12-08T10:05:51.496Z,4.00
2022-12-08T10:08:25.491Z,4.00
2022-12-08T10:10:58.294Z,4.00
2022-12-08T10:13:29.709Z,4.10
2022-12-08T10:16:05.635Z,4.00
2022-12-08T10:18:33.967Z,4.10
2022-12-08T10:21:22.229Z,4.40
2022-12-08T10:23:51.220Z,4.70
2022-12-08T10:26:19.061Z,4.80
2022-12-08T10:28:46.014Z,5.00
2022-12-08T10:31:23.352Z,5.40
2022-12-08T10:33:56.674Z,5.70
2022-12-08T10:36:23.566Z,5.80
2022-12-08T10:38:50.485Z,6.50
2022-12-08T10:41:20.831Z,7.40
2022-12-08T10:43:48.979Z,8.20
2022-12-08T10:46:16.001Z,8.40
2022-12-08T10:48:50.978Z,8.70
2022-12-08T10:51:25.385Z,8.30
2022-12-08T10:53:52.390Z,7.60
2022-12-08T10:56:19.390Z,7.80
2022-12-08T10:58:47.412Z,7.70
2022-12-08T11:01:14.415Z,7.70
2022-12-08T11:03:41.289Z,7.70
2022-12-08T11:06:31.400Z,7.70
2022-12-08T11:08:59.874Z,7.60
2022-12-08T11:11:44.697Z,7.40
2022-12-08T11:14:23.631Z,6.90
2022-12-08T11:16:52.975Z,6.50
2022-12-08T11:19:20.585Z,6.10
2022-12-08T11:21:47.664Z,5.80
2022-12-08T11:24:14.514Z,5.60
2022-12-08T11:26:43.867Z,5.40
2022-12-08T11:29:11.618Z,5.20
2022-12-08T11:31:44.281Z,5.20
2022-12-08T11:34:15.647Z,5.00
2022-12-08T11:36:42.573Z,4.80
2022-12-08T11:39:10.536Z,4.70
2022-12-08T11:41:42.813Z,4.70
2022-12-08T11:44:09.607Z,4.70
2022-12-08T11:46:48.712Z,4.80
2022-12-08T11:49:15.597Z,4.70
2022-12-08T11:51:53.469Z,4.80
2022-12-08T11:54:34.766Z,5.00
2022-12-08T11:57:02.981Z,5.00
2022-12-08T11:59:29.975Z,5.20
2022-12-08T12:01:57.905Z,5.30
2022-12-08T12:05:00.184Z,5.20
2022-12-08T12:07:40.744Z,5.20
2022-12-08T12:10:22.497Z,5.10
2022-12-08T12:12:55.309Z,5.20
2022-12-08T12:15:34.073Z,5.10
2022-12-08T12:18:16.763Z,5.10
2022-12-08T12:20:51.628Z,4.80
2022-12-08T12:23:24.455Z,4.60
2022-12-08T12:25:55.716Z,4.60
2022-12-08T12:28:24.805Z,4.60
2022-12-08T12:30:54.478Z,4.60
2022-12-08T12:33:22.629Z,4.60
2022-12-08T12:35:49.802Z,4.60
2022-12-08T12:38:52.995Z,4.60
2022-12-08T12:41:25.705Z,4.50
2022-12-08T12:44:11.437Z,4.50
2022-12-08T12:46:38.544Z,4.40
2022-12-08T12:49:24.403Z,4.30
2022-12-08T12:51:57.110Z,4.20
2022-12-08T12:54:24.949Z,4.10
2022-12-08T12:56:56.144Z,4.10
2022-12-08T12:59:23.006Z,4.00
2022-12-08T13:01:55.351Z,4.10
2022-12-08T13:04:29.785Z,4.10
2022-12-08T13:06:56.666Z,4.10
2022-12-08T13:09:35.119Z,4.30
2022-12-08T13:12:12.453Z,4.40
2022-12-08T13:14:52.891Z,4.60
2022-12-08T13:17:30.883Z,4.70
2022-12-08T13:19:59.205Z,4.80
2022-12-08T13:22:50.305Z,4.70
2022-12-08T13:25:37.104Z,4.90
2022-12-08T13:28:16.373Z,4.90
2022-12-08T13:30:45.264Z,4.90
2022-12-08T13:33:35.601Z,4.80
2022-12-08T13:36:18.812Z,4.70
2022-12-08T13:38:46.658Z,4.50
2022-12-08T13:41:17.490Z,4.50
2022-12-08T13:45:18.066Z,4.60
2022-12-08T13:47:32.021Z,4.70
2022-12-08T13:58:38.056Z,4.40
2022-12-08T14:01:05.553Z,4.40
2022-12-08T14:04:04.279Z,4.30
2022-12-08T14:06:35.685Z,4.30
2022-12-08T14:09:10.737Z,4.40
2022-12-08T14:11:39.884Z,4.40
2022-12-08T14:14:27.275Z,4.50
2022-12-08T14:17:10.136Z,4.50
2022-12-08T14:19:42.784Z,4.50
2022-12-08T14:22:15.903Z,4.60
2022-12-08T14:24:46.896Z,4.50
2022-12-08T14:27:15.789Z,4.40
2022-12-08T14:29:44.597Z,4.30
2022-12-08T14:32:22.451Z,4.30
2022-12-08T14:34:53.953Z,4.20
2022-12-08T14:37:21.160Z,4.10
2022-12-08T14:39:48.320Z,4.10
2022-12-08T14:42:23.169Z,4.10
2022-12-08T14:44:55.588Z,4.00
2022-12-08T14:47:22.517Z,4.00
2022-12-08T14:49:49.396Z,3.90
2022-12-08T14:52:16.299Z,3.90
2022-12-08T14:54:43.577Z,3.90
2022-12-08T14:57:11.399Z,3.90
2022-12-08T14:59:39.165Z,3.80
2022-12-08T15:02:11.480Z,3.80
2022-12-08T15:04:39.586Z,3.80
2022-12-08T15:07:17.337Z,3.60
2022-12-08T15:09:49.035Z,3.70
2022-12-08T15:12:15.965Z,3.50
2022-12-08T15:15:01.360Z,3.60
2022-12-08T15:17:35.928Z,3.50
2022-12-08T15:20:04.587Z,3.50
2022-12-08T15:22:32.198Z,3.50
2022-12-08T15:25:00.748Z,3.40
2022-12-08T15:27:27.674Z,3.40
2022-12-08T15:29:55.709Z,3.60
2022-12-08T15:32:23.619Z,3.60
2022-12-08T15:34:50.743Z,3.50
2022-12-08T15:37:24.672Z,3.40
2022-12-08T15:39:51.742Z,3.50
2022-12-08T15:42:18.612Z,3.40
2022-12-08T15:44:48.625Z,3.50
2022-12-08T15:47:23.092Z,3.50
2022-12-08T15:49:53.823Z,3.50
2022-12-08T15:52:24.512Z,3.60
2022-12-08T15:54:51.468Z,3.60
2022-12-08T15:58:17.375Z,3.60
2022-12-08T16:00:51.207Z,3.40
2022-12-08T16:07:26.857Z,3.50
2022-12-08T16:09:11.805Z,3.40
2022-12-08T16:12:06.583Z,3.30
2022-12-08T16:17:21.802Z,3.30
2022-12-08T16:19:49.280Z,3.20
2022-12-08T16:25:21.615Z,3.10
2022-12-08T16:28:12.271Z,3.10
2022-12-08T16:30:40.970Z,3.30
2022-12-08T16:33:08.021Z,3.30
2022-12-08T16:35:35.003Z,3.20
2022-12-08T16:38:01.884Z,3.20
2022-12-08T16:40:28.782Z,3.10
2022-12-08T16:42:55.672Z,3.10
2022-12-08T16:45:23.932Z,3.10
2022-12-08T16:47:52.576Z,3.00
2022-12-08T16:50:20.947Z,3.00
2022-12-08T16:52:48.434Z,2.90
2022-12-08T16:55:16.627Z,2.90
2022-12-08T16:57:43.948Z,2.90
2022-12-08T17:00:31.305Z,3.00
2022-12-08T17:02:58.988Z,2.90
2022-12-08T17:05:26.162Z,3.00
2022-12-08T17:07:53.605Z,3.20
2022-12-08T17:10:23.101Z,3.10
2022-12-08T17:12:49.943Z,3.00
2022-12-08T17:15:18.823Z,3.00
2022-12-08T17:17:45.688Z,3.10
2022-12-08T17:20:18.402Z,3.10
2022-12-08T17:22:45.308Z,3.30
2022-12-08T17:25:12.238Z,3.20
2022-12-08T17:27:39.313Z,3.10
2022-12-08T17:30:06.890Z,3.10
2022-12-08T17:32:34.083Z,3.10
2022-12-08T17:35:01.025Z,3.20
2022-12-08T17:37:27.856Z,3.20
2022-12-08T17:39:54.739Z,3.00
2022-12-08T17:42:25.900Z,2.90
2022-12-08T17:44:53.233Z,2.90
2022-12-08T17:47:20.180Z,3.00
2022-12-08T17:49:47.202Z,2.90
2022-12-08T17:52:14.088Z,2.90
2022-12-08T17:54:40.951Z,2.90
2022-12-08T17:57:07.880Z,2.90
2022-12-08T17:59:35.131Z,2.80
2022-12-08T18:02:02.420Z,2.80
2022-12-08T18:04:29.564Z,2.90
2022-12-08T18:06:59.385Z,2.80
2022-12-08T18:09:26.325Z,2.90
2022-12-08T18:11:53.240Z,2.90
2022-12-08T18:14:20.132Z,2.90
2022-12-08T18:16:47.305Z,2.90
2022-12-08T18:19:14.702Z,2.80
2022-12-08T18:21:42.117Z,2.80
2022-12-08T18:24:09.655Z,2.80
2022-12-08T18:26:36.594Z,2.70
2022-12-08T18:29:03.754Z,2.60
2022-12-08T18:31:30.702Z,2.80
2022-12-08T18:33:57.601Z,2.70
2022-12-08T18:36:24.956Z,2.60
2022-12-08T18:38:52.860Z,2.60
2022-12-08T18:41:21.408Z,2.60
2022-12-08T18:43:48.233Z,2.90
2022-12-08T18:46:15.122Z,2.70
2022-12-08T18:48:43.830Z,2.70
2022-12-08T18:51:12.248Z,2.70
2022-12-08T18:53:39.766Z,2.60
2022-12-08T18:56:07.039Z,2.60
2022-12-08T18:58:33.943Z,2.60
2022-12-08T19:01:01.383Z,2.60
2022-12-08T19:03:28.254Z,2.60
2022-12-08T19:06:02.079Z,2.50
2022-12-08T19:08:31.497Z,2.40
2022-12-08T19:10:58.715Z,2.40
2022-12-08T19:13:25.875Z,2.40
2022-12-08T19:15:52.916Z,2.40
2022-12-08T19:18:19.946Z,2.40
2022-12-08T19:20:46.857Z,2.50
2022-12-08T19:23:13.977Z,2.40
2022-12-08T19:25:40.844Z,2.40
2022-12-08T19:28:07.743Z,2.40
2022-12-08T19:30:34.591Z,2.60
2022-12-08T19:33:01.484Z,2.50
2022-12-08T19:35:28.370Z,2.40
2022-12-08T19:37:55.632Z,2.40
2022-12-08T19:40:40.831Z,2.30
2022-12-08T19:43:32.853Z,2.30
2022-12-08T19:45:59.940Z,2.30
2022-12-08T19:48:26.870Z,2.20
2022-12-08T19:50:53.777Z,2.20
2022-12-08T19:53:21.077Z,2.20
2022-12-08T19:55:48.044Z,2.20
2022-12-08T19:58:14.948Z,2.20
2022-12-08T20:00:41.980Z,2.20
2022-12-08T20:03:09.079Z,2.50
2022-12-08T20:05:36.480Z,2.40
2022-12-08T20:08:03.477Z,2.50
2022-12-08T20:10:33.737Z,2.50
2022-12-08T20:13:39.374Z,2.60
2022-12-08T20:16:06.698Z,2.60
2022-12-08T20:18:37.326Z,2.70
2022-12-08T20:21:04.522Z,2.60
2022-12-08T20:23:31.926Z,2.40
2022-12-08T20:25:59.403Z,2.40
2022-12-08T20:28:26.270Z,2.40
2022-12-08T20:30:53.257Z,2.30
2022-12-08T20:33:20.166Z,2.30
2022-12-08T20:35:47.308Z,2.30
2022-12-08T20:38:14.328Z,2.20
2022-12-08T20:40:42.736Z,2.20
2022-12-08T20:43:09.941Z,2.20
2022-12-08T20:45:36.837Z,2.20
2022-12-08T20:48:04.085Z,2.20
2022-12-08T20:50:31.163Z,2.10
2022-12-08T20:52:58.272Z,2.00
2022-12-08T20:55:25.260Z,2.00
2022-12-08T20:57:52.132Z,2.00
2022-12-08T21:00:21.241Z,2.10
2022-12-08T21:02:54.772Z,2.20
2022-12-08T21:05:23.478Z,2.20
2022-12-08T21:07:50.553Z,2.50
2022-12-08T21:10:17.686Z,2.30
2022-12-08T21:12:44.615Z,2.20
2022-12-08T21:15:12.494Z,2.20
2022-12-08T21:17:39.683Z,2.20
2022-12-08T21:20:08.906Z,2.30
2022-12-08T21:22:36.119Z,2.50
2022-12-08T21:25:03.039Z,2.30
2022-12-08T21:27:30.277Z,2.30
2022-12-08T21:29:57.156Z,2.20
2022-12-08T21:32:29.886Z,2.30
2022-12-08T21:34:57.677Z,2.30
2022-12-08T21:37:24.910Z,2.30
2022-12-08T21:39:51.857Z,2.20
2022-12-08T21:42:37.123Z,2.10
2022-12-08T21:45:04.183Z,2.10
2022-12-08T21:47:31.301Z,2.10
2022-12-08T21:49:58.436Z,2.10
2022-12-08T21:52:25.679Z,2.00
2022-12-08T21:54:52.783Z,2.10
2022-12-08T21:57:20.361Z,2.10
2022-12-08T21:59:47.207Z,2.20
2022-12-08T22:02:20.797Z,2.10
2022-12-08T22:04:50.024Z,2.10
2022-12-08T22:07:17.393Z,2.10
2022-12-08T22:09:44.629Z,2.00
2022-12-08T22:12:16.825Z,1.90
2022-12-08T22:14:44.096Z,1.90
2022-12-08T22:17:11.215Z,1.80
2022-12-08T22:19:38.265Z,1.80
2022-12-08T22:22:05.179Z,1.80
2022-12-08T22:24:32.848Z,1.80
2022-12-08T22:26:59.679Z,1.80
2022-12-08T22:29:26.663Z,1.80
2022-12-08T22:31:53.552Z,1.80
2022-12-08T22:34:20.530Z,1.80
2022-12-08T22:36:49.053Z,1.70
2022-12-08T22:39:16.019Z,1.70
2022-12-08T22:41:42.941Z,1.70
2022-12-08T22:44:09.759Z,1.70
2022-12-08T22:46:36.949Z,1.70
2022-12-08T22:49:03.940Z,1.60
2022-12-08T22:51:30.788Z,1.60
2022-12-08T22:53:57.636Z,1.60
2022-12-08T22:56:24.642Z,1.60
2022-12-08T22:58:51.717Z,1.60
2022-12-08T23:01:36.756Z,1.60
2022-12-08T23:04:03.883Z,1.60
2022-12-08T23:06:31.677Z,1.70
2022-12-08T23:08:59.297Z,1.70
2022-12-08T23:11:28.018Z,1.70
2022-12-08T23:13:56.317Z,1.80
2022-12-08T23:16:23.386Z,1.90
2022-12-08T23:18:50.463Z,1.90
2022-12-08T23:21:18.536Z,1.90
2022-12-08T23:23:45.644Z,1.90
2022-12-08T23:26:21.243Z,1.80
2022-12-08T23:28:49.065Z,1.90
2022-12-08T23:31:16.378Z,1.90
2022-12-08T23:33:43.312Z,1.80
2022-12-08T23:36:11.024Z,1.70
2022-12-08T23:38:38.097Z,1.70
2022-12-08T23:41:05.961Z,1.70
2022-12-08T23:43:33.353Z,1.60
2022-12-08T23:46:00.587Z,1.60
2022-12-08T23:48:29.162Z,1.50
2022-12-08T23:50:57.160Z,1.50
2022-12-08T23:53:24.089Z,1.30
2022-12-08T23:55:57.714Z,1.20
2022-12-08T23:58:24.686Z,1.20
